Time;durP1;ratioP1;P1;durP2;ratioP2;P2;SDS_P1;SDS_P2;PMS_P1;PMS_P2;Temp;Humidity;BMP_temperature;BMP_pressure;BME280_temperature;BME280_humidity;BME280_pressure;Samples;Min_cycle;Max_cycle;Signal;HPM_P1;HPM_P2
2022/12/19 00:04:33;;;;;;;7.13;5.72;;;;;;;16.11;46.69;97416.44;10434380;28;20041;-28
2022/12/19 00:09:33;;;;;;;7.45;5.75;;;;;;;16.09;47.05;97407.13;10432860;28;20037;-28
2022/12/19 00:14:34;;;;;;;7.93;5.73;;;;;;;16.14;46.65;97392.94;10448437;28;20068;-28
2022/12/19 00:19:34;;;;;;;6.65;5.65;;;;;;;16.17;46.61;97390.44;10441438;28;20658;-28
2022/12/19 00:24:35;;;;;;;8.88;5.63;;;;;;;16.20;46.27;97391.38;10446483;28;20036;-28
2022/12/19 00:29:35;;;;;;;7.60;5.60;;;;;;;16.21;46.23;97387.19;10444395;28;20029;-28
2022/12/19 00:34:35;;;;;;;8.35;6.07;;;;;;;16.22;46.25;97376.25;10444569;28;20496;-28
2022/12/19 00:39:36;;;;;;;6.87;5.10;;;;;;;16.18;46.24;97385.44;10441895;28;20024;-29
2022/12/19 00:44:36;;;;;;;7.33;5.70;;;;;;;16.21;46.37;97385.47;10436817;28;20040;-29
2022/12/19 00:49:37;;;;;;;9.13;5.47;;;;;;;16.16;46.52;97379.50;10447116;28;20829;-30
2022/12/19 00:54:37;;;;;;;7.82;5.45;;;;;;;16.21;46.39;97372.03;10436685;28;20520;-28
2022/12/19 00:59:37;;;;;;;7.18;5.50;;;;;;;16.22;46.23;97366.13;10439795;28;20064;-28
2022/12/19 01:04:38;;;;;;;6.57;5.70;;;;;;;16.17;46.52;97371.09;10441015;28;20099;-28
2022/12/19 01:09:38;;;;;;;6.10;5.13;;;;;;;16.18;45.97;97377.03;10446496;28;20302;-30
2022/12/19 01:14:39;;;;;;;6.55;4.82;;;;;;;16.17;46.28;97380.34;10435343;28;20288;-28
2022/12/19 01:19:41;;;;;;;6.18;4.70;;;;;;;16.16;46.04;97379.50;10441396;28;20079;-29
2022/12/19 01:24:42;;;;;;;6.65;5.10;;;;;;;16.12;46.72;97376.91;10442684;28;20040;-29
2022/12/19 01:29:43;;;;;;;6.93;5.23;;;;;;;16.10;46.96;97361.69;10442475;28;20056;-28
2022/12/19 01:34:43;;;;;;;6.00;5.25;;;;;;;16.10;46.92;97392.00;10444128;28;20436;-29
2022/12/19 01:39:44;;;;;;;5.75;4.80;;;;;;;16.10;47.06;97404.63;10442084;28;20082;-28
2022/12/19 01:45:18;;;;;;;5.67;4.83;;;;;;;16.12;46.49;97413.09;10442490;28;20683;-28
2022/12/19 01:50:26;;;;;;;8.52;4.90;;;;;;;16.05;46.47;97393.63;10439013;28;20028;-28
2022/12/19 01:55:27;;;;;;;6.18;4.70;;;;;;;16.07;46.57;97404.59;10437550;28;20021;-29
2022/12/19 02:00:27;;;;;;;7.68;5.13;;;;;;;16.07;47.09;97404.59;10435587;28;20037;-29
2022/12/19 02:05:28;;;;;;;8.23;4.53;;;;;;;16.06;46.66;97415.53;10439371;28;20077;-29
2022/12/19 02:10:29;;;;;;;6.20;4.90;;;;;;;16.06;47.14;97397.84;10441709;28;20025;-29
2022/12/19 02:15:39;;;;;;;6.00;4.13;;;;;;;16.05;47.28;97405.38;10441515;28;20021;-28
2022/12/19 02:21:10;;;;;;;5.18;4.65;;;;;;;16.07;46.77;97393.63;10426844;28;20063;-28
2022/12/19 02:26:29;;;;;;;6.57;4.20;;;;;;;16.07;46.84;97411.31;10433277;28;20036;-29
2022/12/19 02:31:35;;;;;;;6.22;4.55;;;;;;;16.05;47.11;97410.44;10427582;28;20047;-29
2022/12/19 02:36:40;;;;;;;4.85;4.05;;;;;;;16.07;47.16;97408.78;10426571;28;20036;-28
2022/12/19 02:41:46;;;;;;;4.95;4.38;;;;;;;16.07;47.26;97416.34;10439875;28;20446;-28
2022/12/19 02:46:53;;;;;;;5.18;3.88;;;;;;;16.06;47.08;97407.94;10425320;28;20094;-28
2022/12/19 02:51:57;;;;;;;7.65;4.38;;;;;;;16.03;47.37;97397.75;10437859;28;20020;-29
2022/12/19 02:57:08;;;;;;;5.53;4.20;;;;;;;16.07;47.37;97414.69;10432831;28;20040;-28
2022/12/19 03:02:24;;;;;;;4.63;4.07;;;;;;;16.11;47.48;97400.44;10439884;28;20036;-29
2022/12/19 03:07:39;;;;;;;5.85;4.20;;;;;;;16.13;47.32;97404.69;10440295;28;20029;-29
2022/12/19 03:12:50;;;;;;;6.25;3.85;;;;;;;16.11;47.22;97396.25;10430421;28;20064;-28
2022/12/19 03:17:51;;;;;;;6.72;4.15;;;;;;;16.09;47.38;97402.94;10430952;28;20120;-28
2022/12/19 03:22:52;;;;;;;5.25;3.85;;;;;;;16.08;47.04;97411.34;10432945;28;20052;-28
2022/12/19 03:27:55;;;;;;;5.03;3.95;;;;;;;16.12;47.28;97397.09;10444823;28;20129;-29
2022/12/19 03:32:56;;;;;;;5.22;3.70;;;;;;;16.12;47.03;97387.84;10442596;28;20405;-28
2022/12/19 03:38:01;;;;;;;4.50;3.60;;;;;;;16.12;47.10;97382.78;10430725;28;20041;-28
2022/12/19 03:43:08;;;;;;;6.47;3.72;;;;;;;16.11;47.06;97373.50;10440143;28;20520;-28
2022/12/19 03:48:36;;;;;;;4.70;3.85;;;;;;;16.08;47.25;97357.44;10432129;28;20413;-28
2022/12/19 03:53:47;;;;;;;4.05;3.45;;;;;;;16.10;47.52;97369.28;10442721;28;20063;-28
2022/12/19 03:58:55;;;;;;;4.53;3.92;;;;;;;16.10;47.45;97368.44;10436747;28;20165;-28
2022/12/19 04:03:57;;;;;;;4.68;3.80;;;;;;;16.09;47.58;97371.75;10444362;28;20138;-28
2022/12/19 04:08:59;;;;;;;4.63;4.10;;;;;;;16.03;47.47;97359.03;10439662;28;20021;-29
2022/12/19 04:14:04;;;;;;;4.88;3.60;;;;;;;16.05;47.36;97368.34;10436977;28;20021;-29
2022/12/19 04:19:14;;;;;;;3.30;3.00;;;;;;;15.96;48.14;97354.69;10451905;28;20025;-28
2022/12/19 04:24:21;;;;;;;5.50;3.80;;;;;;;16.02;48.04;97358.16;10438378;28;20467;-28
2022/12/19 04:29:25;;;;;;;5.25;3.42;;;;;;;16.06;47.42;97343.94;10439742;28;20029;-28
2022/12/19 04:34:25;;;;;;;3.47;3.00;;;;;;;16.04;47.29;97343.88;10445658;28;20032;-28
2022/12/19 04:39:26;;;;;;;3.83;3.42;;;;;;;16.06;47.91;97346.47;10438268;28;20029;-28
2022/12/19 04:44:26;;;;;;;3.65;3.10;;;;;;;16.02;47.70;97350.59;10445054;28;20080;-30
2022/12/19 04:49:27;;;;;;;3.53;3.23;;;;;;;16.10;47.37;97359.19;10437411;28;20374;-28
2022/12/19 04:54:27;;;;;;;4.37;3.50;;;;;;;16.07;47.64;97343.09;10448982;28;20496;-28
2022/12/19 04:59:28;;;;;;;3.73;2.90;;;;;;;16.14;46.92;97340.75;10430222;28;20299;-30
2022/12/19 05:04:28;;;;;;;4.53;3.08;;;;;;;16.18;46.81;97347.53;10437681;28;20117;-29
2022/12/19 05:09:28;;;;;;;2.87;2.53;;;;;;;16.22;46.81;97339.22;10444956;28;20036;-29
2022/12/19 05:14:29;;;;;;;3.83;3.03;;;;;;;16.17;46.92;97335.75;10443337;28;20033;-27
2022/12/19 05:19:30;;;;;;;4.80;3.25;;;;;;;16.22;46.96;97338.34;10448302;28;20035;-28
2022/12/19 05:24:30;;;;;;;4.78;3.17;;;;;;;16.24;46.88;97334.16;10447314;28;20033;-29
2022/12/19 05:29:30;;;;;;;3.38;2.53;;;;;;;16.25;47.38;97336.72;10447694;28;20503;-29
2022/12/19 05:34:31;;;;;;;4.00;3.33;;;;;;;16.24;46.89;97332.50;10445717;28;20020;-29
2022/12/19 05:39:31;;;;;;;6.50;3.40;;;;;;;16.19;48.19;97334.09;10441500;28;20873;-29
2022/12/19 05:44:31;;;;;;;5.23;3.13;;;;;;;16.15;48.32;97323.91;10440664;28;20447;-29
2022/12/19 05:49:32;;;;;;;3.50;2.60;;;;;;;16.14;47.71;97330.66;10441744;28;20441;-29
2022/12/19 05:54:32;;;;;;;4.77;3.23;;;;;;;16.17;47.25;97335.75;10444557;28;20501;-29
2022/12/19 05:59:32;;;;;;;4.73;2.80;;;;;;;16.23;47.23;97325.75;10428876;28;20554;-29
2022/12/19 06:04:33;;;;;;;4.33;2.70;;;;;;;16.16;47.11;97310.44;10441020;28;20036;-29
2022/12/19 06:09:34;;;;;;;3.38;2.58;;;;;;;16.23;47.25;97325.75;10446035;28;20036;-28
2022/12/19 06:14:34;;;;;;;4.23;2.83;;;;;;;16.20;47.49;97315.56;10428883;28;20500;-28
2022/12/19 06:19:34;;;;;;;3.73;2.77;;;;;;;16.23;47.39;97309.72;10444263;28;20547;-28
2022/12/19 06:24:35;;;;;;;4.93;2.97;;;;;;;16.21;47.60;97306.34;10443233;28;20040;-28
2022/12/19 06:29:35;;;;;;;2.75;2.30;;;;;;;16.19;47.52;97302.94;10431710;28;20476;-29
2022/12/19 06:34:35;;;;;;;2.93;2.40;;;;;;;16.18;47.67;97307.13;10442362;28;20051;-30
2022/12/19 06:39:36;;;;;;;4.05;2.60;;;;;;;16.15;47.34;97306.22;10432153;28;20036;-28
2022/12/19 06:44:36;;;;;;;3.38;2.35;;;;;;;16.14;47.51;97300.34;10438802;28;20024;-28
2022/12/19 06:49:36;;;;;;;3.47;2.73;;;;;;;16.15;47.37;97294.44;10439434;28;20553;-28
2022/12/19 06:54:37;;;;;;;3.47;2.97;;;;;;;16.17;47.59;97290.28;10434145;28;20025;-28
2022/12/19 06:59:37;;;;;;;4.13;2.65;;;;;;;16.15;47.69;97286.88;10429091;28;20546;-29
2022/12/19 07:04:42;;;;;;;3.40;2.53;;;;;;;16.10;48.45;97283.41;10437928;28;20064;-28
2022/12/19 07:09:42;;;;;;;6.68;3.10;;;;;;;16.02;48.80;97292.50;10433842;28;20119;-28
2022/12/19 07:14:43;;;;;;;13.10;5.13;;;;;;;15.99;49.76;97302.56;10447358;28;20091;-29
2022/12/19 07:19:44;;;;;;;7.93;5.43;;;;;;;16.09;48.33;97316.19;10465520;28;20496;-29
2022/12/19 07:24:44;;;;;;;9.15;5.30;;;;;;;16.07;48.80;97318.72;10438344;28;20047;-29
2022/12/19 07:29:45;;;;;;;11.57;5.68;;;;;;;16.09;48.88;97322.13;10425808;28;20064;-28
2022/12/19 07:34:45;;;;;;;9.53;5.13;;;;;;;16.07;49.18;97327.94;10441386;28;20029;-28
2022/12/19 07:39:49;;;;;;;6.32;4.93;;;;;;;16.05;48.81;97339.72;10435820;28;20029;-28
2022/12/19 07:44:49;;;;;;;7.45;4.85;;;;;;;16.04;48.89;97348.94;10437039;28;20125;-28
2022/12/19 07:49:49;;;;;;;7.87;4.87;;;;;;;16.06;49.03;97349.84;10432570;28;20039;-28
2022/12/19 07:54:50;;;;;;;7.87;4.60;;;;;;;16.06;49.10;97359.09;10438365;28;20655;-28
2022/12/19 07:59:50;;;;;;;8.63;5.33;;;;;;;16.06;48.93;97362.47;10435381;28;20775;-29
2022/12/19 08:04:51;;;;;;;7.13;5.03;;;;;;;16.05;49.22;97370.00;10441323;28;20386;-29
2022/12/19 08:09:51;;;;;;;7.03;5.10;;;;;;;16.03;48.84;97372.50;10434826;28;20295;-29
2022/12/19 08:14:51;;;;;;;9.10;5.63;;;;;;;16.04;49.11;97366.63;10435923;28;20032;-33
2022/12/19 08:19:52;;;;;;;6.70;4.72;;;;;;;16.05;49.41;97359.91;10440268;28;20291;-28
2022/12/19 08:24:52;;;;;;;7.03;5.20;;;;;;;16.04;49.69;97359.03;10433911;28;20041;-29
2022/12/19 08:29:52;;;;;;;7.00;6.03;;;;;;;16.03;49.45;97364.91;10437559;28;20041;-28
2022/12/19 08:34:55;;;;;;;10.10;6.50;;;;;;;16.02;49.60;97359.88;10442493;28;20030;-29
2022/12/19 08:39:56;;;;;;;15.25;6.32;;;;;;;16.02;49.51;97369.97;10444754;28;20052;-27
2022/12/19 08:44:57;;;;;;;8.70;6.00;;;;;;;16.04;48.93;97354.00;10437879;28;20044;-28
2022/12/19 08:49:57;;;;;;;7.93;5.53;;;;;;;16.05;49.22;97355.72;10438618;28;20029;-28
2022/12/19 08:54:57;;;;;;;6.17;5.00;;;;;;;15.95;49.83;97353.81;10443075;28;20040;-29
2022/12/19 08:59:58;;;;;;;10.60;6.57;;;;;;;16.03;49.21;97342.19;10439270;28;20287;-28
2022/12/19 09:04:58;;;;;;;14.50;6.80;;;;;;;16.07;48.99;97356.59;10435525;28;20041;-29
2022/12/19 09:09:59;;;;;;;13.73;7.53;;;;;;;16.05;50.07;97344.75;10446765;28;20086;-29
2022/12/19 09:14:59;;;;;;;20.73;8.50;;;;;;;16.00;50.60;97367.41;10428137;28;20039;-29
2022/12/19 09:19:59;;;;;;;32.63;7.17;;;;;;;16.10;49.97;97368.44;10449314;28;20048;-30
2022/12/19 09:25:00;;;;;;;17.87;8.30;;;;;;;16.09;50.35;97359.13;10435258;28;20033;-27
2022/12/19 09:30:00;;;;;;;19.70;8.20;;;;;;;16.23;48.89;97361.13;10443108;28;20033;-28
2022/12/19 09:35:01;;;;;;;15.45;7.88;;;;;;;16.30;48.78;97367.13;10439552;28;20029;-28
2022/12/19 09:40:01;;;;;;;19.67;8.00;;;;;;;16.34;49.17;97349.53;10441545;28;20396;-29
2022/12/19 09:45:26;;;;;;;14.77;8.45;;;;;;;16.18;49.67;97346.72;10437712;28;20558;-28
2022/12/19 09:50:34;;;;;;;16.90;9.40;;;;;;;16.09;50.84;97336.41;10435889;28;20063;-28
2022/12/19 09:55:39;;;;;;;12.43;8.48;;;;;;;16.05;50.81;97324.56;10436830;28;20025;-28
2022/12/19 10:01:03;;;;;;;14.25;8.25;;;;;;;16.05;50.42;97316.97;10431120;28;20124;-28
2022/12/19 10:06:17;;;;;;;11.48;8.40;;;;;;;16.07;49.89;97318.72;10433824;28;20493;-29
2022/12/19 10:11:41;;;;;;;11.00;7.45;;;;;;;16.04;50.69;97312.75;10435287;28;20115;-29
2022/12/19 10:16:51;;;;;;;14.75;7.60;;;;;;;16.04;50.34;97306.00;10432389;28;20033;-28
2022/12/19 10:21:59;;;;;;;11.70;7.47;;;;;;;16.08;50.53;97320.41;10434795;28;20048;-28
2022/12/19 10:27:03;;;;;;;12.93;8.48;;;;;;;16.05;50.33;97315.31;10436922;28;20091;-29
2022/12/19 10:32:15;;;;;;;10.80;7.78;;;;;;;16.09;50.59;97306.97;10443529;28;20027;-28
2022/12/19 10:37:25;;;;;;;10.88;7.93;;;;;;;16.05;50.22;97295.13;10430973;28;20420;-29
2022/12/19 10:42:55;;;;;;;14.02;8.13;;;;;;;16.06;49.98;97290.91;10436417;28;20035;-28
2022/12/19 10:47:56;;;;;;;14.85;8.48;;;;;;;16.06;50.09;97285.84;10412343;28;20048;-28
2022/12/19 10:53:02;;;;;;;14.65;8.82;;;;;;;16.08;49.57;97289.25;10440200;28;20029;-28
2022/12/19 10:58:23;;;;;;;12.48;7.90;;;;;;;15.99;48.82;97262.16;10430909;28;20043;-28
2022/12/19 11:03:23;;;;;;;11.00;7.18;;;;;;;16.06;49.91;97271.56;10441899;28;20045;-29
2022/12/19 11:08:28;;;;;;;13.93;7.70;;;;;;;16.03;50.59;97263.06;10435970;28;20029;-27
2022/12/19 11:13:38;;;;;;;12.18;7.13;;;;;;;16.05;50.89;97262.28;10434044;28;20416;-29
2022/12/19 11:18:48;;;;;;;11.77;7.43;;;;;;;16.24;50.64;97245.75;10428277;28;20126;-28
2022/12/19 11:23:49;;;;;;;16.15;7.97;;;;;;;16.21;50.61;97240.66;10440339;28;20045;-29
2022/12/19 11:28:50;;;;;;;15.07;7.57;;;;;;;16.34;51.12;97253.50;10437286;28;20087;-27
2022/12/19 11:34:06;;;;;;;11.23;6.75;;;;;;;16.36;51.14;97256.91;10438678;28;20037;-28
2022/12/19 11:39:17;;;;;;;10.73;6.78;;;;;;;16.24;50.23;97244.09;10429891;28;20037;-29
2022/12/19 11:44:36;;;;;;;10.88;7.03;;;;;;;16.37;49.83;97235.06;10433603;28;20112;-29
2022/12/19 11:50:01;;;;;;;10.45;6.55;;;;;;;16.42;50.27;97231.78;10424358;28;20033;-28
2022/12/19 11:55:07;;;;;;;9.60;6.88;;;;;;;16.43;50.56;97218.31;10438083;28;20032;-29
2022/12/19 12:00:29;;;;;;;10.70;6.80;;;;;;;16.46;50.87;97228.47;10431483;28;20409;-28
2022/12/19 12:05:47;;;;;;;11.05;6.40;;;;;;;16.47;50.47;97215.03;10445859;28;20029;-29
2022/12/19 12:10:58;;;;;;;11.05;7.07;;;;;;;16.47;50.64;97219.22;10442796;28;20029;-28
2022/12/19 12:16:04;;;;;;;17.25;7.32;;;;;;;16.52;50.35;97213.41;10441679;28;20066;-31
2022/12/19 12:21:27;;;;;;;10.07;7.18;;;;;;;16.49;50.36;97192.28;10435587;28;20037;-28
2022/12/19 12:26:32;;;;;;;18.50;6.50;;;;;;;16.48;50.85;97196.50;10442738;28;20454;-29
2022/12/19 12:31:55;;;;;;;12.57;6.15;;;;;;;16.49;50.80;97179.66;10437325;28;20063;-29
2022/12/19 12:37:04;;;;;;;11.32;7.28;;;;;;;16.49;50.47;97159.44;10439680;28;20390;-29
2022/12/19 12:42:28;;;;;;;7.95;6.07;;;;;;;16.51;50.74;97172.94;10442936;28;20039;-28
2022/12/19 12:47:29;;;;;;;11.68;5.95;;;;;;;16.49;50.78;97162.81;10433023;28;20569;-28
2022/12/19 12:52:40;;;;;;;7.65;6.28;;;;;;;16.50;50.26;97163.66;10438851;28;20064;-29
2022/12/19 12:57:41;;;;;;;10.23;6.47;;;;;;;16.51;50.60;97183.03;10429814;28;20509;-28
2022/12/19 13:02:46;;;;;;;10.73;6.57;;;;;;;16.52;50.40;97177.19;10437242;28;20048;-28
2022/12/19 13:07:52;;;;;;;10.32;5.82;;;;;;;16.51;50.28;97183.91;10439876;28;20037;-28
2022/12/19 13:13:01;;;;;;;9.27;5.97;;;;;;;16.41;50.54;97169.44;10438008;28;20029;-30
2022/12/19 13:18:11;;;;;;;8.88;5.63;;;;;;;16.48;50.77;97193.97;10448232;28;20029;-29
2022/12/19 13:23:42;;;;;;;12.88;7.47;;;;;;;16.42;51.01;97188.81;10434931;28;20033;-28
2022/12/19 13:28:42;;;;;;;9.90;6.03;;;;;;;16.52;50.11;97197.41;10428060;28;20041;-29
2022/12/19 13:33:45;;;;;;;9.13;5.75;;;;;;;16.51;50.23;97198.22;10443336;28;20401;-30
2022/12/19 13:38:49;;;;;;;7.70;5.95;;;;;;;16.44;50.26;97194.75;10431114;28;20033;-29
2022/12/19 13:43:49;;;;;;;9.25;6.30;;;;;;;16.51;50.38;97205.78;10443919;28;20025;-30
2022/12/19 13:48:55;;;;;;;8.57;5.90;;;;;;;16.50;50.63;97211.66;10433123;28;20079;-28
2022/12/19 13:53:55;;;;;;;9.35;5.95;;;;;;;16.44;50.59;97194.75;10444043;28;20413;-27
2022/12/19 13:58:59;;;;;;;7.20;5.60;;;;;;;16.42;50.36;97211.56;10441567;28;20029;-29
2022/12/19 14:04:30;;;;;;;7.85;4.57;;;;;;;16.43;49.78;97203.16;10439352;28;20036;-29
2022/12/19 14:09:33;;;;;;;9.05;5.15;;;;;;;16.59;50.51;97225.31;10432952;28;20069;-28
2022/12/19 14:20:17;;;;;;;8.00;5.60;;;;;;;16.59;50.76;97232.03;10446097;28;20052;-28
2022/12/19 14:25:18;;;;;;;7.10;5.45;;;;;;;16.59;51.32;97225.31;10431781;28;20490;-28
2022/12/19 14:30:21;;;;;;;7.80;5.30;;;;;;;16.53;50.82;97222.69;10433972;28;20037;-28
2022/12/19 14:35:26;;;;;;;9.90;5.50;;;;;;;16.51;50.78;97215.91;10435277;28;20704;-28
2022/12/19 14:40:30;;;;;;;5.03;4.28;;;;;;;16.51;51.14;97211.72;10443137;28;20036;-29
2022/12/19 14:45:39;;;;;;;6.50;5.00;;;;;;;16.51;50.77;97208.31;10433751;28;20033;-29
2022/12/19 14:50:39;;;;;;;8.98;5.47;;;;;;;16.52;50.97;97210.03;10441454;28;20111;-29
2022/12/19 14:55:40;;;;;;;8.67;5.70;;;;;;;16.51;50.82;97198.22;10433226;28;20103;-29
2022/12/19 15:00:50;;;;;;;6.68;5.03;;;;;;;16.54;49.92;97206.69;10428287;28;20287;-28
2022/12/19 15:06:00;;;;;;;13.13;5.22;;;;;;;16.54;50.73;97195.75;10439639;28;20033;-29
2022/12/19 15:16:34;;;;;;;6.32;5.00;;;;;;;16.55;50.39;97217.66;10435096;28;20042;-29
2022/12/19 15:21:35;;;;;;;6.47;5.07;;;;;;;16.52;51.70;97205.81;10443128;28;20056;-29
2022/12/19 15:26:46;;;;;;;5.90;4.63;;;;;;;16.52;50.91;97194.88;10439800;28;20112;-29
2022/12/19 15:31:46;;;;;;;4.35;2.92;;;;;;;16.32;48.09;97186.94;10438953;28;20033;-28
2022/12/19 15:36:47;;;;;;;5.27;3.53;;;;;;;16.25;47.93;97197.78;10432477;28;20029;-31
2022/12/19 15:41:50;;;;;;;7.55;3.65;;;;;;;16.35;49.02;97184.47;10434810;28;20112;-31
2022/12/19 15:46:51;;;;;;;5.95;3.30;;;;;;;16.42;49.54;97176.19;10432037;28;20621;-31
2022/12/19 15:51:51;;;;;;;4.30;3.35;;;;;;;16.45;49.66;97186.34;10435279;28;20029;-29
2022/12/19 15:56:54;;;;;;;5.43;3.55;;;;;;;16.45;50.18;97180.44;10433917;28;20108;-31
2022/12/19 16:01:56;;;;;;;4.97;3.95;;;;;;;16.50;50.32;97196.50;10427015;28;20547;-29
2022/12/19 16:06:56;;;;;;;4.15;3.47;;;;;;;16.51;49.97;97191.50;10443212;28;20025;-29
2022/12/19 16:11:57;;;;;;;5.37;3.63;;;;;;;16.48;50.46;97205.75;10437521;28;20029;-29
2022/12/19 16:16:58;;;;;;;7.00;3.35;;;;;;;16.51;50.50;97201.59;10438239;28;20059;-29
2022/12/19 16:21:59;;;;;;;7.45;3.95;;;;;;;16.52;50.90;97194.88;10436241;28;20410;-29
2022/12/19 16:26:59;;;;;;;7.57;4.97;;;;;;;16.52;50.57;97193.19;10428500;28;20038;-29
2022/12/19 16:32:00;;;;;;;10.93;6.00;;;;;;;16.54;50.74;97181.41;10437160;28;20041;-29
2022/12/19 16:37:00;;;;;;;8.63;4.90;;;;;;;16.51;50.36;97183.91;10435167;28;20029;-29
2022/12/19 16:42:03;;;;;;;14.17;9.90;;;;;;;16.51;49.81;97183.03;10428017;28;20546;-28
2022/12/19 16:47:09;;;;;;;16.55;11.55;;;;;;;16.59;50.68;97174.75;10426498;28;20432;-29
2022/12/19 16:52:10;;;;;;;17.70;12.68;;;;;;;16.62;50.93;97172.25;10438850;28;20032;-29
2022/12/19 16:57:20;;;;;;;16.33;11.02;;;;;;;16.46;50.18;97177.91;10438445;28;20045;-29
2022/12/19 17:02:41;;;;;;;15.30;9.85;;;;;;;16.37;51.03;97182.84;10432342;28;20036;-30
2022/12/19 17:07:41;;;;;;;17.58;12.10;;;;;;;16.32;52.03;97184.44;10437590;28;20037;-28
2022/12/19 17:12:43;;;;;;;19.70;12.97;;;;;;;16.25;52.81;97187.69;10443312;28;20033;-29
2022/12/19 17:17:44;;;;;;;28.77;16.38;;;;;;;16.20;53.26;97184.22;10440493;28;20354;-29
2022/12/19 17:22:45;;;;;;;27.05;17.00;;;;;;;16.21;53.40;97183.38;10439358;28;20553;-29
2022/12/19 17:27:47;;;;;;;27.13;18.88;;;;;;;16.17;53.58;97179.13;10449792;28;20063;-28
2022/12/19 17:32:52;;;;;;;30.35;19.48;;;;;;;16.22;53.52;97169.09;10446766;28;20485;-28
2022/12/19 17:37:54;;;;;;;27.20;19.70;;;;;;;16.21;53.22;97182.56;10437495;28;20036;-29
2022/12/19 17:42:55;;;;;;;27.52;18.58;;;;;;;16.19;53.86;97192.63;10436608;28;20029;-29
2022/12/19 17:48:01;;;;;;;25.90;18.23;;;;;;;16.25;52.96;97200.31;10435533;28;20048;-28
2022/12/19 17:53:01;;;;;;;29.50;18.63;;;;;;;16.25;52.83;97190.19;10431663;28;20029;-30
2022/12/19 17:58:01;;;;;;;28.93;18.03;;;;;;;16.24;53.31;97195.22;10434203;28;20489;-29
2022/12/19 18:03:23;;;;;;;36.40;21.93;;;;;;;16.27;52.96;97198.66;10434653;28;20353;-29
2022/12/19 18:08:30;;;;;;;38.50;23.83;;;;;;;16.26;54.53;97209.59;10437827;28;20814;-30
2022/12/19 18:13:31;;;;;;;45.03;24.90;;;;;;;16.30;54.05;97201.22;10436056;28;20044;-28
2022/12/19 18:18:35;;;;;;;39.42;24.60;;;;;;;16.27;54.17;97192.75;10429579;28;20442;-29
2022/12/19 18:23:35;;;;;;;36.95;22.77;;;;;;;16.30;53.24;97191.09;10426640;28;20029;-28
2022/12/19 18:28:35;;;;;;;41.90;23.27;;;;;;;16.26;53.62;97189.38;10443288;28;20028;-30
2022/12/19 18:33:38;;;;;;;34.03;23.00;;;;;;;16.23;53.66;97194.38;10442523;28;20021;-29
2022/12/19 18:38:39;;;;;;;33.22;22.38;;;;;;;16.25;53.74;97182.63;10437258;28;20815;-29
2022/12/19 18:43:39;;;;;;;31.90;21.70;;;;;;;16.19;53.71;97169.88;10433051;28;20049;-29
2022/12/19 18:48:41;;;;;;;34.67;21.10;;;;;;;16.21;53.69;97175.81;10432060;28;20030;-29
2022/12/19 18:53:42;;;;;;;31.52;21.10;;;;;;;16.21;53.33;97175.81;10441144;28;20029;-29
2022/12/19 18:58:43;;;;;;;33.63;20.45;;;;;;;16.22;53.03;97177.53;10435975;28;20034;-29
2022/12/19 19:03:55;;;;;;;34.72;20.58;;;;;;;16.22;53.32;97172.47;10433957;28;20025;-29
2022/12/19 19:08:56;;;;;;;35.20;21.05;;;;;;;16.24;52.94;97180.94;10432317;28;20514;-30
2022/12/19 19:14:12;;;;;;;31.80;19.92;;;;;;;16.24;52.82;97180.06;10426958;28;20029;-30
2022/12/19 19:19:16;;;;;;;32.77;18.67;;;;;;;16.21;52.80;97173.28;10432935;28;20113;-29
2022/12/19 19:24:20;;;;;;;29.80;19.42;;;;;;;16.17;53.19;97166.50;10434381;28;20403;-28
2022/12/19 19:29:21;;;;;;;29.60;18.40;;;;;;;16.18;53.21;97164.84;10438021;28;20135;-29
2022/12/19 19:34:32;;;;;;;27.30;17.97;;;;;;;16.15;53.56;97155.53;10434132;28;20017;-28
2022/12/19 19:39:33;;;;;;;27.35;16.88;;;;;;;16.11;53.39;97157.97;10432630;28;20287;-29
2022/12/19 19:44:34;;;;;;;27.15;16.90;;;;;;;16.14;53.64;97156.34;10443828;28;20031;-28
2022/12/19 19:49:34;;;;;;;34.17;18.67;;;;;;;16.18;53.37;97154.72;10431675;28;20545;-28
2022/12/19 19:54:34;;;;;;;26.60;16.33;;;;;;;16.21;52.58;97150.53;10436165;28;20025;-28
2022/12/19 19:59:35;;;;;;;29.33;17.73;;;;;;;16.27;53.33;97153.19;10430173;28;20021;-29
2022/12/19 20:04:36;;;;;;;31.90;17.83;;;;;;;16.28;53.15;97157.41;10444623;28;20512;-29
2022/12/19 20:09:36;;;;;;;29.60;16.92;;;;;;;16.28;54.12;97161.63;10422750;28;20043;-29
2022/12/19 20:14:37;;;;;;;29.50;18.30;;;;;;;16.23;54.73;97159.03;10430494;28;20021;-29
2022/12/19 20:19:37;;;;;;;29.97;17.30;;;;;;;16.29;54.01;97175.94;10442301;28;20283;-29
2022/12/19 20:24:37;;;;;;;28.70;17.65;;;;;;;16.30;53.94;97175.94;10441203;28;20029;-29
2022/12/19 20:29:38;;;;;;;30.83;18.63;;;;;;;16.29;54.14;97168.38;10448479;28;20036;-29
2022/12/19 20:34:38;;;;;;;28.02;17.90;;;;;;;16.28;54.00;97172.56;10442854;28;20271;-29
2022/12/19 20:39:39;;;;;;;27.93;18.83;;;;;;;16.30;53.65;97172.59;10437237;28;20468;-28
2022/12/19 20:44:39;;;;;;;26.02;17.55;;;;;;;16.35;53.50;97194.56;10438108;28;20288;-29
2022/12/19 20:49:40;;;;;;;27.07;17.00;;;;;;;16.35;52.67;97184.47;10438184;28;20102;-29
2022/12/19 20:54:40;;;;;;;30.47;17.10;;;;;;;16.42;54.05;97200.59;10435975;28;20294;-30
2022/12/19 20:59:41;;;;;;;28.65;15.70;;;;;;;16.37;54.24;97182.84;10429091;28;20030;-29
2022/12/19 21:04:41;;;;;;;21.47;14.97;;;;;;;16.33;54.02;97165.91;10450392;28;20029;-28
2022/12/19 21:09:43;;;;;;;19.73;14.60;;;;;;;16.34;53.21;97156.63;10444511;28;20083;-29
2022/12/19 21:14:44;;;;;;;23.10;15.00;;;;;;;16.31;53.07;97162.53;10448322;28;20031;-29
2022/12/19 21:19:44;;;;;;;24.08;14.13;;;;;;;16.30;53.75;97163.31;10440085;28;20025;-29
2022/12/19 21:24:45;;;;;;;22.75;14.77;;;;;;;16.27;53.67;97164.97;10439317;28;20064;-30
2022/12/19 21:29:45;;;;;;;20.77;13.82;;;;;;;16.27;53.63;97165.81;10437901;28;20037;-29
2022/12/19 21:34:45;;;;;;;21.40;13.30;;;;;;;16.17;53.53;97158.91;10444668;28;20031;-29
2022/12/19 21:39:46;;;;;;;18.85;12.68;;;;;;;16.22;53.21;97175.00;10440707;28;20294;-29
2022/12/19 21:44:46;;;;;;;18.50;11.65;;;;;;;16.22;53.40;97190.16;10438911;28;20037;-29
2022/12/19 21:49:47;;;;;;;17.93;12.47;;;;;;;16.19;53.07;97186.75;10436572;28;20037;-29
2022/12/19 21:54:47;;;;;;;15.80;11.40;;;;;;;16.22;52.83;97192.69;10442653;28;20026;-30
2022/12/19 21:59:47;;;;;;;17.57;11.07;;;;;;;16.14;53.19;97170.66;10432946;28;20048;-29
2022/12/19 22:04:48;;;;;;;21.33;13.13;;;;;;;16.17;53.70;97171.53;10440787;28;20464;-28
2022/12/19 22:09:48;;;;;;;17.42;11.25;;;;;;;16.19;52.96;97182.53;10430970;28;20501;-29
2022/12/19 22:14:49;;;;;;;18.00;10.50;;;;;;;16.22;53.07;97164.91;10438983;28;20200;-28
2022/12/19 22:19:49;;;;;;;16.42;10.30;;;;;;;16.18;53.39;97178.28;10447401;28;20036;-29
2022/12/19 22:24:50;;;;;;;16.83;10.50;;;;;;;16.18;53.42;97180.00;10436326;28;20037;-29
2022/12/19 22:29:50;;;;;;;16.77;11.40;;;;;;;16.17;53.92;97179.13;10446862;28;20294;-28
2022/12/19 22:34:51;;;;;;;14.93;10.43;;;;;;;16.16;53.38;97177.44;10441067;28;20524;-29
2022/12/19 22:39:51;;;;;;;16.05;10.60;;;;;;;16.18;53.04;97174.94;10431053;28;20040;-29
2022/12/19 22:44:52;;;;;;;14.60;9.27;;;;;;;16.16;53.06;97167.31;10436552;28;20592;-29
2022/12/19 22:49:52;;;;;;;14.23;9.93;;;;;;;16.18;52.55;97173.25;10433752;28;20025;-29
2022/12/19 22:54:52;;;;;;;14.63;9.97;;;;;;;16.17;53.19;97170.69;10436233;28;20093;-29
2022/12/19 22:59:53;;;;;;;16.37;10.00;;;;;;;16.15;52.94;97170.69;10429292;28;20037;-29
2022/12/19 23:04:53;;;;;;;12.33;8.43;;;;;;;16.12;53.47;97175.66;10438193;28;20294;-30
2022/12/19 23:09:53;;;;;;;11.63;9.13;;;;;;;16.15;53.40;97169.81;10441809;28;20033;-30
2022/12/19 23:14:54;;;;;;;12.68;9.07;;;;;;;16.17;52.83;97163.09;10433333;28;20029;-29
2022/12/19 23:19:54;;;;;;;14.80;9.95;;;;;;;16.15;52.60;97165.63;10436557;28;20382;-30
2022/12/19 23:24:55;;;;;;;15.33;10.10;;;;;;;16.17;52.89;97163.97;10436663;28;20501;-29
2022/12/19 23:29:55;;;;;;;12.67;8.73;;;;;;;16.16;52.80;97157.22;10443670;28;20056;-29
2022/12/19 23:34:55;;;;;;;17.03;9.03;;;;;;;16.16;52.63;97168.97;10437263;28;20353;-29